sensor_id;sensor_type;location;lat;lon;timestamp;P1;durP1;ratioP1;P2;durP2;ratioP2
52186;SDS011;38161;53.020;6.598;2023-04-15T00:00:09;11.45;;;5.82;;
52186;SDS011;38161;53.020;6.598;2023-04-15T00:02:36;11.20;;;5.35;;
52186;SDS011;38161;53.020;6.598;2023-04-15T00:05:03;9.88;;;5.47;;
52186;SDS011;38161;53.020;6.598;2023-04-15T00:07:30;11.93;;;5.10;;
52186;SDS011;38161;53.020;6.598;2023-04-15T00:09:57;13.55;;;5.43;;
52186;SDS011;38161;53.020;6.598;2023-04-15T00:12:23;13.73;;;5.95;;
52186;SDS011;38161;53.020;6.598;2023-04-15T00:14:50;11.63;;;5.20;;
52186;SDS011;38161;53.020;6.598;2023-04-15T00:17:16;12.90;;;5.72;;
52186;SDS011;38161;53.020;6.598;2023-04-15T00:19:42;14.07;;;5.95;;
52186;SDS011;38161;53.020;6.598;2023-04-15T00:22:09;16.10;;;5.70;;
52186;SDS011;38161;53.020;6.598;2023-04-15T00:24:36;9.82;;;5.10;;
52186;SDS011;38161;53.020;6.598;2023-04-15T00:27:02;10.32;;;4.97;;
52186;SDS011;38161;53.020;6.598;2023-04-15T00:29:28;10.20;;;5.32;;
52186;SDS011;38161;53.020;6.598;2023-04-15T00:31:54;9.57;;;5.57;;
52186;SDS011;38161;53.020;6.598;2023-04-15T00:34:23;14.30;;;5.30;;
52186;SDS011;38161;53.020;6.598;2023-04-15T00:36:49;10.70;;;5.80;;
52186;SDS011;38161;53.020;6.598;2023-04-15T00:39:15;16.67;;;6.43;;
52186;SDS011;38161;53.020;6.598;2023-04-15T00:41:42;10.90;;;5.50;;
52186;SDS011;38161;53.020;6.598;2023-04-15T00:44:08;9.90;;;5.85;;
52186;SDS011;38161;53.020;6.598;2023-04-15T00:46:35;14.95;;;6.40;;
52186;SDS011;38161;53.020;6.598;2023-04-15T00:49:05;15.05;;;6.30;;
52186;SDS011;38161;53.020;6.598;2023-04-15T00:51:32;14.93;;;6.55;;
52186;SDS011;38161;53.020;6.598;2023-04-15T00:54:04;13.75;;;6.30;;
52186;SDS011;38161;53.020;6.598;2023-04-15T00:56:35;13.25;;;5.65;;
52186;SDS011;38161;53.020;6.598;2023-04-15T00:59:03;11.63;;;6.20;;
52186;SDS011;38161;53.020;6.598;2023-04-15T01:01:30;15.85;;;6.40;;
52186;SDS011;38161;53.020;6.598;2023-04-15T01:03:58;15.93;;;6.78;;
52186;SDS011;38161;53.020;6.598;2023-04-15T01:06:24;10.60;;;6.93;;
52186;SDS011;38161;53.020;6.598;2023-04-15T01:08:51;12.40;;;7.00;;
52186;SDS011;38161;53.020;6.598;2023-04-15T01:11:21;11.20;;;6.47;;
52186;SDS011;38161;53.020;6.598;2023-04-15T01:13:48;12.38;;;6.57;;
52186;SDS011;38161;53.020;6.598;2023-04-15T01:16:16;15.73;;;7.25;;
52186;SDS011;38161;53.020;6.598;2023-04-15T01:18:42;13.95;;;6.78;;
52186;SDS011;38161;53.020;6.598;2023-04-15T01:21:08;12.43;;;6.85;;
52186;SDS011;38161;53.020;6.598;2023-04-15T01:23:35;12.10;;;7.18;;
52186;SDS011;38161;53.020;6.598;2023-04-15T01:26:03;15.15;;;7.43;;
52186;SDS011;38161;53.020;6.598;2023-04-15T01:28:29;14.48;;;8.25;;
52186;SDS011;38161;53.020;6.598;2023-04-15T01:31:09;14.27;;;7.90;;
52186;SDS011;38161;53.020;6.598;2023-04-15T01:33:37;15.50;;;7.57;;
52186;SDS011;38161;53.020;6.598;2023-04-15T01:38:30;10.38;;;6.90;;
52186;SDS011;38161;53.020;6.598;2023-04-15T01:40:57;13.88;;;7.40;;
52186;SDS011;38161;53.020;6.598;2023-04-15T01:43:24;12.60;;;7.18;;
52186;SDS011;38161;53.020;6.598;2023-04-15T01:45:50;13.25;;;7.05;;
52186;SDS011;38161;53.020;6.598;2023-04-15T01:48:16;19.70;;;8.40;;
52186;SDS011;38161;53.020;6.598;2023-04-15T01:50:43;15.95;;;9.10;;
52186;SDS011;38161;53.020;6.598;2023-04-15T01:53:09;14.48;;;7.80;;
52186;SDS011;38161;53.020;6.598;2023-04-15T01:55:35;14.70;;;7.90;;
52186;SDS011;38161;53.020;6.598;2023-04-15T01:58:02;16.23;;;8.43;;
52186;SDS011;38161;53.020;6.598;2023-04-15T02:00:27;14.35;;;7.70;;
52186;SDS011;38161;53.020;6.598;2023-04-15T02:02:54;13.00;;;8.02;;
52186;SDS011;38161;53.020;6.598;2023-04-15T02:05:19;16.08;;;8.45;;
52186;SDS011;38161;53.020;6.598;2023-04-15T02:07:45;14.63;;;8.27;;
52186;SDS011;38161;53.020;6.598;2023-04-15T02:10:12;14.60;;;8.10;;
52186;SDS011;38161;53.020;6.598;2023-04-15T02:12:38;13.10;;;6.60;;
52186;SDS011;38161;53.020;6.598;2023-04-15T02:17:34;14.35;;;7.70;;
52186;SDS011;38161;53.020;6.598;2023-04-15T02:20:01;10.85;;;6.93;;
52186;SDS011;38161;53.020;6.598;2023-04-15T02:22:30;12.68;;;7.82;;
52186;SDS011;38161;53.020;6.598;2023-04-15T02:24:56;12.95;;;7.68;;
52186;SDS011;38161;53.020;6.598;2023-04-15T02:27:22;11.32;;;7.57;;
52186;SDS011;38161;53.020;6.598;2023-04-15T02:29:48;13.63;;;7.73;;
52186;SDS011;38161;53.020;6.598;2023-04-15T02:32:15;15.80;;;8.95;;
52186;SDS011;38161;53.020;6.598;2023-04-15T02:34:41;14.70;;;8.07;;
52186;SDS011;38161;53.020;6.598;2023-04-15T02:37:11;14.02;;;8.05;;
52186;SDS011;38161;53.020;6.598;2023-04-15T02:39:37;15.70;;;8.60;;
52186;SDS011;38161;53.020;6.598;2023-04-15T02:42:03;14.80;;;8.60;;
52186;SDS011;38161;53.020;6.598;2023-04-15T02:44:30;12.18;;;7.32;;
52186;SDS011;38161;53.020;6.598;2023-04-15T02:49:23;13.52;;;8.50;;
52186;SDS011;38161;53.020;6.598;2023-04-15T02:51:49;12.73;;;8.02;;
52186;SDS011;38161;53.020;6.598;2023-04-15T02:54:16;16.33;;;9.02;;
52186;SDS011;38161;53.020;6.598;2023-04-15T02:56:47;13.77;;;8.50;;
52186;SDS011;38161;53.020;6.598;2023-04-15T02:59:14;15.02;;;8.50;;
52186;SDS011;38161;53.020;6.598;2023-04-15T03:01:40;13.27;;;8.73;;
52186;SDS011;38161;53.020;6.598;2023-04-15T03:04:06;14.05;;;9.38;;
52186;SDS011;38161;53.020;6.598;2023-04-15T03:06:33;13.95;;;8.93;;
52186;SDS011;38161;53.020;6.598;2023-04-15T03:08:59;15.25;;;9.43;;
52186;SDS011;38161;53.020;6.598;2023-04-15T03:11:27;16.58;;;9.40;;
52186;SDS011;38161;53.020;6.598;2023-04-15T03:13:53;13.70;;;8.60;;
52186;SDS011;38161;53.020;6.598;2023-04-15T03:16:19;16.33;;;9.57;;
52186;SDS011;38161;53.020;6.598;2023-04-15T03:18:45;14.13;;;9.52;;
52186;SDS011;38161;53.020;6.598;2023-04-15T03:21:10;17.63;;;10.07;;
52186;SDS011;38161;53.020;6.598;2023-04-15T03:23:36;16.97;;;9.13;;
52186;SDS011;38161;53.020;6.598;2023-04-15T03:26:02;15.63;;;9.17;;
52186;SDS011;38161;53.020;6.598;2023-04-15T03:28:29;16.90;;;9.00;;
52186;SDS011;38161;53.020;6.598;2023-04-15T03:30:55;14.07;;;8.55;;
52186;SDS011;38161;53.020;6.598;2023-04-15T03:33:21;14.82;;;8.95;;
52186;SDS011;38161;53.020;6.598;2023-04-15T03:35:47;10.15;;;7.22;;
52186;SDS011;38161;53.020;6.598;2023-04-15T03:38:13;14.77;;;8.77;;
52186;SDS011;38161;53.020;6.598;2023-04-15T03:40:39;17.30;;;8.77;;
52186;SDS011;38161;53.020;6.598;2023-04-15T03:43:05;13.32;;;8.88;;
52186;SDS011;38161;53.020;6.598;2023-04-15T03:45:32;13.82;;;8.20;;
52186;SDS011;38161;53.020;6.598;2023-04-15T03:47:57;15.15;;;9.20;;
52186;SDS011;38161;53.020;6.598;2023-04-15T03:50:23;15.90;;;10.10;;
52186;SDS011;38161;53.020;6.598;2023-04-15T03:52:49;15.17;;;9.83;;
52186;SDS011;38161;53.020;6.598;2023-04-15T03:55:15;17.73;;;10.07;;
52186;SDS011;38161;53.020;6.598;2023-04-15T03:57:41;14.23;;;9.73;;
52186;SDS011;38161;53.020;6.598;2023-04-15T04:00:07;17.47;;;10.53;;
52186;SDS011;38161;53.020;6.598;2023-04-15T04:02:34;17.20;;;10.00;;
52186;SDS011;38161;53.020;6.598;2023-04-15T04:05:00;16.42;;;9.45;;
52186;SDS011;38161;53.020;6.598;2023-04-15T04:07:26;16.42;;;10.23;;
52186;SDS011;38161;53.020;6.598;2023-04-15T04:09:52;15.52;;;10.20;;
52186;SDS011;38161;53.020;6.598;2023-04-15T04:12:18;17.88;;;9.98;;
52186;SDS011;38161;53.020;6.598;2023-04-15T04:14:44;15.73;;;10.55;;
52186;SDS011;38161;53.020;6.598;2023-04-15T04:17:09;16.03;;;10.10;;
52186;SDS011;38161;53.020;6.598;2023-04-15T04:19:35;15.15;;;9.85;;
52186;SDS011;38161;53.020;6.598;2023-04-15T04:22:01;20.17;;;11.80;;
52186;SDS011;38161;53.020;6.598;2023-04-15T04:24:27;14.57;;;9.80;;
52186;SDS011;38161;53.020;6.598;2023-04-15T04:26:53;15.07;;;10.33;;
52186;SDS011;38161;53.020;6.598;2023-04-15T04:29:18;16.37;;;10.73;;
52186;SDS011;38161;53.020;6.598;2023-04-15T04:31:44;17.42;;;10.15;;
52186;SDS011;38161;53.020;6.598;2023-04-15T04:34:12;17.13;;;10.73;;
52186;SDS011;38161;53.020;6.598;2023-04-15T04:36:38;18.35;;;11.15;;
52186;SDS011;38161;53.020;6.598;2023-04-15T04:39:05;20.08;;;11.45;;
52186;SDS011;38161;53.020;6.598;2023-04-15T04:41:31;15.45;;;10.18;;
52186;SDS011;38161;53.020;6.598;2023-04-15T04:43:57;18.30;;;11.63;;
52186;SDS011;38161;53.020;6.598;2023-04-15T04:46:22;18.43;;;11.37;;
52186;SDS011;38161;53.020;6.598;2023-04-15T04:48:48;18.30;;;12.10;;
52186;SDS011;38161;53.020;6.598;2023-04-15T04:51:14;17.23;;;10.35;;
52186;SDS011;38161;53.020;6.598;2023-04-15T04:53:40;23.73;;;12.70;;
52186;SDS011;38161;53.020;6.598;2023-04-15T04:56:07;20.30;;;12.45;;
52186;SDS011;38161;53.020;6.598;2023-04-15T04:58:33;19.38;;;12.75;;
52186;SDS011;38161;53.020;6.598;2023-04-15T05:00:58;18.90;;;12.13;;
52186;SDS011;38161;53.020;6.598;2023-04-15T05:03:24;19.15;;;12.10;;
52186;SDS011;38161;53.020;6.598;2023-04-15T05:05:51;21.83;;;12.50;;
52186;SDS011;38161;53.020;6.598;2023-04-15T05:08:17;22.52;;;12.93;;
52186;SDS011;38161;53.020;6.598;2023-04-15T05:10:43;19.07;;;12.07;;
52186;SDS011;38161;53.020;6.598;2023-04-15T05:13:08;24.05;;;14.02;;
52186;SDS011;38161;53.020;6.598;2023-04-15T05:15:34;23.93;;;14.50;;
52186;SDS011;38161;53.020;6.598;2023-04-15T05:20:26;20.20;;;13.40;;
52186;SDS011;38161;53.020;6.598;2023-04-15T05:22:53;21.27;;;13.38;;
52186;SDS011;38161;53.020;6.598;2023-04-15T05:25:18;22.57;;;13.63;;
52186;SDS011;38161;53.020;6.598;2023-04-15T05:27:44;19.88;;;12.25;;
52186;SDS011;38161;53.020;6.598;2023-04-15T05:30:10;22.20;;;13.52;;
52186;SDS011;38161;53.020;6.598;2023-04-15T05:32:36;18.08;;;12.35;;
52186;SDS011;38161;53.020;6.598;2023-04-15T05:35:02;23.48;;;13.13;;
52186;SDS011;38161;53.020;6.598;2023-04-15T05:37:28;21.15;;;13.23;;
52186;SDS011;38161;53.020;6.598;2023-04-15T05:39:54;22.27;;;13.53;;
52186;SDS011;38161;53.020;6.598;2023-04-15T05:44:46;18.67;;;11.75;;
52186;SDS011;38161;53.020;6.598;2023-04-15T05:47:12;17.57;;;11.13;;
52186;SDS011;38161;53.020;6.598;2023-04-15T05:49:37;20.20;;;13.20;;
52186;SDS011;38161;53.020;6.598;2023-04-15T05:52:04;20.85;;;13.10;;
52186;SDS011;38161;53.020;6.598;2023-04-15T05:54:29;21.80;;;13.32;;
52186;SDS011;38161;53.020;6.598;2023-04-15T05:56:55;21.20;;;14.00;;
52186;SDS011;38161;53.020;6.598;2023-04-15T06:01:48;20.67;;;13.32;;
52186;SDS011;38161;53.020;6.598;2023-04-15T06:04:14;20.48;;;12.65;;
52186;SDS011;38161;53.020;6.598;2023-04-15T06:06:44;20.85;;;12.85;;
52186;SDS011;38161;53.020;6.598;2023-04-15T06:09:10;22.20;;;13.73;;
52186;SDS011;38161;53.020;6.598;2023-04-15T06:11:36;20.00;;;13.13;;
52186;SDS011;38161;53.020;6.598;2023-04-15T06:14:02;25.13;;;15.00;;
52186;SDS011;38161;53.020;6.598;2023-04-15T06:16:27;24.83;;;15.27;;
52186;SDS011;38161;53.020;6.598;2023-04-15T06:18:53;23.43;;;15.57;;
52186;SDS011;38161;53.020;6.598;2023-04-15T06:21:19;24.30;;;15.13;;
52186;SDS011;38161;53.020;6.598;2023-04-15T06:23:45;22.10;;;14.82;;
52186;SDS011;38161;53.020;6.598;2023-04-15T06:26:11;22.83;;;14.68;;
52186;SDS011;38161;53.020;6.598;2023-04-15T06:28:37;22.23;;;14.73;;
52186;SDS011;38161;53.020;6.598;2023-04-15T06:31:02;22.30;;;14.30;;
52186;SDS011;38161;53.020;6.598;2023-04-15T06:33:28;20.30;;;13.47;;
52186;SDS011;38161;53.020;6.598;2023-04-15T06:35:54;20.52;;;13.07;;
52186;SDS011;38161;53.020;6.598;2023-04-15T06:38:20;26.27;;;15.33;;
52186;SDS011;38161;53.020;6.598;2023-04-15T06:40:46;21.97;;;14.20;;
52186;SDS011;38161;53.020;6.598;2023-04-15T06:43:11;21.77;;;14.43;;
52186;SDS011;38161;53.020;6.598;2023-04-15T06:45:37;20.50;;;12.77;;
52186;SDS011;38161;53.020;6.598;2023-04-15T06:48:03;23.87;;;14.80;;
52186;SDS011;38161;53.020;6.598;2023-04-15T06:50:30;22.67;;;14.05;;
52186;SDS011;38161;53.020;6.598;2023-04-15T06:52:55;25.48;;;14.02;;
52186;SDS011;38161;53.020;6.598;2023-04-15T06:55:21;23.03;;;13.40;;
52186;SDS011;38161;53.020;6.598;2023-04-15T06:57:47;19.52;;;12.43;;
52186;SDS011;38161;53.020;6.598;2023-04-15T07:00:13;21.83;;;12.90;;
52186;SDS011;38161;53.020;6.598;2023-04-15T07:05:05;20.33;;;12.02;;
52186;SDS011;38161;53.020;6.598;2023-04-15T07:09:58;22.65;;;11.98;;
52186;SDS011;38161;53.020;6.598;2023-04-15T07:12:24;19.05;;;11.90;;
52186;SDS011;38161;53.020;6.598;2023-04-15T07:14:50;19.98;;;11.65;;
52186;SDS011;38161;53.020;6.598;2023-04-15T07:17:16;21.20;;;11.87;;
52186;SDS011;38161;53.020;6.598;2023-04-15T07:19:45;18.47;;;11.87;;
52186;SDS011;38161;53.020;6.598;2023-04-15T07:22:11;18.08;;;11.13;;
52186;SDS011;38161;53.020;6.598;2023-04-15T07:24:37;20.42;;;12.32;;
52186;SDS011;38161;53.020;6.598;2023-04-15T07:27:03;17.57;;;10.27;;
52186;SDS011;38161;53.020;6.598;2023-04-15T07:29:29;17.33;;;10.82;;
52186;SDS011;38161;53.020;6.598;2023-04-15T07:31:55;17.13;;;10.85;;
52186;SDS011;38161;53.020;6.598;2023-04-15T07:34:21;18.90;;;10.53;;
52186;SDS011;38161;53.020;6.598;2023-04-15T07:36:47;17.33;;;10.47;;
52186;SDS011;38161;53.020;6.598;2023-04-15T07:39:16;17.48;;;10.18;;
52186;SDS011;38161;53.020;6.598;2023-04-15T07:41:42;14.70;;;9.20;;
52186;SDS011;38161;53.020;6.598;2023-04-15T07:44:08;16.27;;;10.07;;
52186;SDS011;38161;53.020;6.598;2023-04-15T07:46:34;17.27;;;9.27;;
52186;SDS011;38161;53.020;6.598;2023-04-15T07:49:00;16.42;;;9.20;;
52186;SDS011;38161;53.020;6.598;2023-04-15T07:51:25;15.27;;;8.90;;
52186;SDS011;38161;53.020;6.598;2023-04-15T07:53:52;14.10;;;8.40;;
52186;SDS011;38161;53.020;6.598;2023-04-15T07:56:19;16.92;;;8.90;;
52186;SDS011;38161;53.020;6.598;2023-04-15T07:58:44;11.85;;;7.57;;
52186;SDS011;38161;53.020;6.598;2023-04-15T08:01:10;14.30;;;8.05;;
52186;SDS011;38161;53.020;6.598;2023-04-15T08:03:36;16.27;;;8.40;;
52186;SDS011;38161;53.020;6.598;2023-04-15T08:08:29;13.50;;;7.82;;
52186;SDS011;38161;53.020;6.598;2023-04-15T08:10:55;12.32;;;7.13;;
52186;SDS011;38161;53.020;6.598;2023-04-15T08:13:22;12.77;;;8.05;;
52186;SDS011;38161;53.020;6.598;2023-04-15T08:15:52;12.03;;;7.87;;
52186;SDS011;38161;53.020;6.598;2023-04-15T08:18:38;12.75;;;6.78;;
52186;SDS011;38161;53.020;6.598;2023-04-15T08:21:06;11.43;;;6.93;;
52186;SDS011;38161;53.020;6.598;2023-04-15T08:23:32;11.88;;;7.00;;
52186;SDS011;38161;53.020;6.598;2023-04-15T08:25:58;11.68;;;7.18;;
52186;SDS011;38161;53.020;6.598;2023-04-15T08:28:24;12.85;;;6.85;;
52186;SDS011;38161;53.020;6.598;2023-04-15T08:30:51;11.00;;;6.38;;
52186;SDS011;38161;53.020;6.598;2023-04-15T08:33:17;11.38;;;6.32;;
52186;SDS011;38161;53.020;6.598;2023-04-15T08:35:43;9.82;;;6.85;;
52186;SDS011;38161;53.020;6.598;2023-04-15T08:38:10;12.38;;;6.93;;
52186;SDS011;38161;53.020;6.598;2023-04-15T08:40:40;11.57;;;7.47;;
52186;SDS011;38161;53.020;6.598;2023-04-15T08:43:11;10.85;;;6.65;;
52186;SDS011;38161;53.020;6.598;2023-04-15T08:45:43;10.77;;;6.57;;
52186;SDS011;38161;53.020;6.598;2023-04-15T08:48:12;13.40;;;6.35;;
52186;SDS011;38161;53.020;6.598;2023-04-15T08:50:42;10.75;;;6.68;;
52186;SDS011;38161;53.020;6.598;2023-04-15T08:55:35;8.63;;;5.40;;
52186;SDS011;38161;53.020;6.598;2023-04-15T08:58:09;11.50;;;5.13;;
52186;SDS011;38161;53.020;6.598;2023-04-15T09:00:35;11.98;;;5.40;;
52186;SDS011;38161;53.020;6.598;2023-04-15T09:03:03;11.43;;;5.43;;
52186;SDS011;38161;53.020;6.598;2023-04-15T09:05:37;11.48;;;5.25;;
52186;SDS011;38161;53.020;6.598;2023-04-15T09:08:03;10.15;;;4.78;;
52186;SDS011;38161;53.020;6.598;2023-04-15T09:10:30;10.35;;;5.20;;
52186;SDS011;38161;53.020;6.598;2023-04-15T09:12:57;7.75;;;4.45;;
52186;SDS011;38161;53.020;6.598;2023-04-15T09:15:23;6.95;;;4.18;;
52186;SDS011;38161;53.020;6.598;2023-04-15T09:17:51;6.78;;;3.38;;
52186;SDS011;38161;53.020;6.598;2023-04-15T09:20:17;6.38;;;3.65;;
52186;SDS011;38161;53.020;6.598;2023-04-15T09:22:44;7.05;;;3.00;;
52186;SDS011;38161;53.020;6.598;2023-04-15T09:27:50;7.05;;;3.10;;
52186;SDS011;38161;53.020;6.598;2023-04-15T09:30:17;5.45;;;2.70;;
52186;SDS011;38161;53.020;6.598;2023-04-15T09:35:17;4.90;;;2.60;;
52186;SDS011;38161;53.020;6.598;2023-04-15T09:37:43;5.57;;;2.65;;
52186;SDS011;38161;53.020;6.598;2023-04-15T09:40:09;6.70;;;2.85;;
52186;SDS011;38161;53.020;6.598;2023-04-15T09:42:35;4.40;;;2.70;;
52186;SDS011;38161;53.020;6.598;2023-04-15T09:45:10;6.32;;;2.65;;
52186;SDS011;38161;53.020;6.598;2023-04-15T09:47:40;5.32;;;2.60;;
52186;SDS011;38161;53.020;6.598;2023-04-15T09:50:06;5.45;;;3.10;;
52186;SDS011;38161;53.020;6.598;2023-04-15T09:52:32;8.38;;;2.65;;
52186;SDS011;38161;53.020;6.598;2023-04-15T09:54:58;4.85;;;2.10;;
52186;SDS011;38161;53.020;6.598;2023-04-15T09:59:59;3.88;;;1.85;;
52186;SDS011;38161;53.020;6.598;2023-04-15T10:02:25;6.13;;;2.33;;
52186;SDS011;38161;53.020;6.598;2023-04-15T10:04:52;4.70;;;2.50;;
52186;SDS011;38161;53.020;6.598;2023-04-15T10:07:19;4.15;;;2.45;;
52186;SDS011;38161;53.020;6.598;2023-04-15T10:09:49;5.97;;;2.70;;
52186;SDS011;38161;53.020;6.598;2023-04-15T10:12:17;4.00;;;2.22;;
52186;SDS011;38161;53.020;6.598;2023-04-15T10:14:44;4.10;;;2.53;;
52186;SDS011;38161;53.020;6.598;2023-04-15T10:17:16;5.80;;;2.22;;
52186;SDS011;38161;53.020;6.598;2023-04-15T10:19:46;4.20;;;2.13;;
52186;SDS011;38161;53.020;6.598;2023-04-15T10:22:14;4.43;;;2.13;;
52186;SDS011;38161;53.020;6.598;2023-04-15T10:27:06;3.47;;;2.20;;
52186;SDS011;38161;53.020;6.598;2023-04-15T10:29:33;7.15;;;2.38;;
52186;SDS011;38161;53.020;6.598;2023-04-15T10:31:59;5.28;;;2.17;;
52186;SDS011;38161;53.020;6.598;2023-04-15T10:36:55;5.20;;;2.08;;
52186;SDS011;38161;53.020;6.598;2023-04-15T10:44:44;4.63;;;2.35;;
52186;SDS011;38161;53.020;6.598;2023-04-15T10:47:16;4.10;;;2.10;;
52186;SDS011;38161;53.020;6.598;2023-04-15T10:49:48;5.68;;;1.88;;
52186;SDS011;38161;53.020;6.598;2023-04-15T10:52:23;4.00;;;2.10;;
52186;SDS011;38161;53.020;6.598;2023-04-15T10:55:11;5.47;;;2.15;;
52186;SDS011;38161;53.020;6.598;2023-04-15T10:57:43;3.88;;;1.90;;
52186;SDS011;38161;53.020;6.598;2023-04-15T11:05:18;6.18;;;2.35;;
52186;SDS011;38161;53.020;6.598;2023-04-15T11:12:38;8.32;;;2.50;;
52186;SDS011;38161;53.020;6.598;2023-04-15T11:17:51;4.78;;;2.50;;
52186;SDS011;38161;53.020;6.598;2023-04-15T11:20:17;4.68;;;2.35;;
52186;SDS011;38161;53.020;6.598;2023-04-15T11:22:49;5.63;;;2.40;;
52186;SDS011;38161;53.020;6.598;2023-04-15T11:27:52;6.70;;;2.33;;
52186;SDS011;38161;53.020;6.598;2023-04-15T11:30:20;6.75;;;2.60;;
52186;SDS011;38161;53.020;6.598;2023-04-15T11:32:47;6.05;;;2.67;;
52186;SDS011;38161;53.020;6.598;2023-04-15T11:35:15;8.15;;;2.45;;
52186;SDS011;38161;53.020;6.598;2023-04-15T11:37:42;6.57;;;2.50;;
52186;SDS011;38161;53.020;6.598;2023-04-15T11:40:08;6.88;;;2.75;;
52186;SDS011;38161;53.020;6.598;2023-04-15T11:42:34;6.55;;;2.60;;
52186;SDS011;38161;53.020;6.598;2023-04-15T11:45:13;6.40;;;2.72;;
52186;SDS011;38161;53.020;6.598;2023-04-15T11:47:42;6.03;;;2.83;;
52186;SDS011;38161;53.020;6.598;2023-04-15T11:55:20;4.30;;;2.10;;
52186;SDS011;38161;53.020;6.598;2023-04-15T11:58:34;6.43;;;2.47;;
52186;SDS011;38161;53.020;6.598;2023-04-15T12:00:35;7.97;;;2.20;;
52186;SDS011;38161;53.020;6.598;2023-04-15T12:03:17;5.95;;;2.40;;
52186;SDS011;38161;53.020;6.598;2023-04-15T12:06:09;7.82;;;2.75;;
52186;SDS011;38161;53.020;6.598;2023-04-15T12:08:49;8.68;;;2.45;;
52186;SDS011;38161;53.020;6.598;2023-04-15T12:11:42;5.47;;;2.25;;
52186;SDS011;38161;53.020;6.598;2023-04-15T12:16:44;8.23;;;2.42;;
52186;SDS011;38161;53.020;6.598;2023-04-15T12:19:11;12.25;;;2.92;;
52186;SDS011;38161;53.020;6.598;2023-04-15T12:21:40;8.32;;;2.75;;
52186;SDS011;38161;53.020;6.598;2023-04-15T12:24:09;9.57;;;2.63;;
52186;SDS011;38161;53.020;6.598;2023-04-15T12:26:44;10.02;;;2.40;;
52186;SDS011;38161;53.020;6.598;2023-04-15T12:29:17;7.93;;;2.20;;
52186;SDS011;38161;53.020;6.598;2023-04-15T12:31:46;11.82;;;2.92;;
52186;SDS011;38161;53.020;6.598;2023-04-15T12:34:25;9.25;;;2.53;;
52186;SDS011;38161;53.020;6.598;2023-04-15T12:36:55;11.05;;;2.65;;
52186;SDS011;38161;53.020;6.598;2023-04-15T12:41:49;8.63;;;2.08;;
52186;SDS011;38161;53.020;6.598;2023-04-15T12:44:15;4.40;;;1.92;;
52186;SDS011;38161;53.020;6.598;2023-04-15T12:46:41;7.90;;;2.20;;
52186;SDS011;38161;53.020;6.598;2023-04-15T12:49:08;10.45;;;2.85;;
52186;SDS011;38161;53.020;6.598;2023-04-15T12:51:34;6.50;;;1.92;;
52186;SDS011;38161;53.020;6.598;2023-04-15T12:53:59;10.83;;;2.10;;
52186;SDS011;38161;53.020;6.598;2023-04-15T12:56:25;6.53;;;2.22;;
52186;SDS011;38161;53.020;6.598;2023-04-15T12:58:51;7.30;;;2.22;;
52186;SDS011;38161;53.020;6.598;2023-04-15T13:01:17;6.53;;;2.05;;
52186;SDS011;38161;53.020;6.598;2023-04-15T13:03:43;9.63;;;2.13;;
52186;SDS011;38161;53.020;6.598;2023-04-15T13:06:17;6.43;;;2.00;;
52186;SDS011;38161;53.020;6.598;2023-04-15T13:09:02;5.60;;;1.70;;
52186;SDS011;38161;53.020;6.598;2023-04-15T13:11:28;9.23;;;2.45;;
52186;SDS011;38161;53.020;6.598;2023-04-15T13:14:01;10.90;;;2.08;;
52186;SDS011;38161;53.020;6.598;2023-04-15T13:16:28;7.70;;;1.90;;
52186;SDS011;38161;53.020;6.598;2023-04-15T13:18:54;12.68;;;2.40;;
52186;SDS011;38161;53.020;6.598;2023-04-15T13:21:20;8.52;;;2.22;;
52186;SDS011;38161;53.020;6.598;2023-04-15T13:23:45;8.20;;;2.05;;
52186;SDS011;38161;53.020;6.598;2023-04-15T13:26:13;7.63;;;1.95;;
52186;SDS011;38161;53.020;6.598;2023-04-15T13:28:39;7.33;;;2.17;;
52186;SDS011;38161;53.020;6.598;2023-04-15T13:31:08;8.07;;;1.95;;
52186;SDS011;38161;53.020;6.598;2023-04-15T13:33:34;8.33;;;2.27;;
52186;SDS011;38161;53.020;6.598;2023-04-15T13:36:00;14.05;;;2.28;;
52186;SDS011;38161;53.020;6.598;2023-04-15T13:38:25;6.63;;;2.13;;
52186;SDS011;38161;53.020;6.598;2023-04-15T13:40:51;7.00;;;1.90;;
52186;SDS011;38161;53.020;6.598;2023-04-15T13:43:17;8.70;;;2.00;;
52186;SDS011;38161;53.020;6.598;2023-04-15T13:45:43;6.70;;;1.80;;
52186;SDS011;38161;53.020;6.598;2023-04-15T13:48:09;7.75;;;1.88;;
52186;SDS011;38161;53.020;6.598;2023-04-15T13:50:35;8.05;;;2.30;;
52186;SDS011;38161;53.020;6.598;2023-04-15T13:53:01;6.97;;;2.23;;
52186;SDS011;38161;53.020;6.598;2023-04-15T13:55:26;8.52;;;1.77;;
52186;SDS011;38161;53.020;6.598;2023-04-15T13:57:52;10.23;;;2.05;;
52186;SDS011;38161;53.020;6.598;2023-04-15T14:00:18;7.80;;;2.13;;
52186;SDS011;38161;53.020;6.598;2023-04-15T14:02:44;7.82;;;2.05;;
52186;SDS011;38161;53.020;6.598;2023-04-15T14:05:10;8.32;;;2.10;;
52186;SDS011;38161;53.020;6.598;2023-04-15T14:07:36;8.95;;;2.17;;
52186;SDS011;38161;53.020;6.598;2023-04-15T14:10:02;6.15;;;1.90;;
52186;SDS011;38161;53.020;6.598;2023-04-15T14:12:35;11.43;;;1.73;;
52186;SDS011;38161;53.020;6.598;2023-04-15T14:15:01;10.70;;;1.88;;
52186;SDS011;38161;53.020;6.598;2023-04-15T14:17:27;5.45;;;1.80;;
52186;SDS011;38161;53.020;6.598;2023-04-15T14:19:52;7.95;;;2.00;;
52186;SDS011;38161;53.020;6.598;2023-04-15T14:22:18;6.80;;;2.05;;
52186;SDS011;38161;53.020;6.598;2023-04-15T14:24:44;7.68;;;2.15;;
52186;SDS011;38161;53.020;6.598;2023-04-15T14:27:10;5.85;;;2.03;;
52186;SDS011;38161;53.020;6.598;2023-04-15T14:29:36;6.68;;;1.85;;
52186;SDS011;38161;53.020;6.598;2023-04-15T14:32:03;9.30;;;2.17;;
52186;SDS011;38161;53.020;6.598;2023-04-15T14:34:29;11.52;;;2.80;;
52186;SDS011;38161;53.020;6.598;2023-04-15T14:36:55;8.93;;;2.10;;
52186;SDS011;38161;53.020;6.598;2023-04-15T14:39:21;9.57;;;2.50;;
52186;SDS011;38161;53.020;6.598;2023-04-15T14:41:47;5.05;;;2.17;;
52186;SDS011;38161;53.020;6.598;2023-04-15T14:44:13;9.80;;;2.50;;
52186;SDS011;38161;53.020;6.598;2023-04-15T14:49:08;10.80;;;2.40;;
52186;SDS011;38161;53.020;6.598;2023-04-15T14:51:34;11.82;;;3.00;;
52186;SDS011;38161;53.020;6.598;2023-04-15T14:54:00;8.52;;;2.08;;
52186;SDS011;38161;53.020;6.598;2023-04-15T14:56:26;8.18;;;2.45;;
52186;SDS011;38161;53.020;6.598;2023-04-15T14:58:52;7.88;;;2.40;;
52186;SDS011;38161;53.020;6.598;2023-04-15T15:01:18;8.57;;;2.30;;
52186;SDS011;38161;53.020;6.598;2023-04-15T15:03:45;8.27;;;2.60;;
52186;SDS011;38161;53.020;6.598;2023-04-15T15:06:11;8.32;;;2.08;;
52186;SDS011;38161;53.020;6.598;2023-04-15T15:08:37;9.63;;;2.35;;
52186;SDS011;38161;53.020;6.598;2023-04-15T15:11:03;11.40;;;2.67;;
52186;SDS011;38161;53.020;6.598;2023-04-15T15:13:29;12.10;;;2.45;;
52186;SDS011;38161;53.020;6.598;2023-04-15T15:15:55;11.30;;;3.03;;
52186;SDS011;38161;53.020;6.598;2023-04-15T15:18:21;10.13;;;2.40;;
52186;SDS011;38161;53.020;6.598;2023-04-15T15:20:49;11.18;;;2.47;;
52186;SDS011;38161;53.020;6.598;2023-04-15T15:23:15;12.00;;;3.00;;
52186;SDS011;38161;53.020;6.598;2023-04-15T15:25:41;9.45;;;2.20;;
52186;SDS011;38161;53.020;6.598;2023-04-15T15:28:08;6.13;;;2.45;;
52186;SDS011;38161;53.020;6.598;2023-04-15T15:30:34;7.72;;;1.85;;
52186;SDS011;38161;53.020;6.598;2023-04-15T15:33:00;9.73;;;2.10;;
52186;SDS011;38161;53.020;6.598;2023-04-15T15:35:26;7.97;;;3.10;;
52186;SDS011;38161;53.020;6.598;2023-04-15T15:37:52;11.77;;;2.83;;
52186;SDS011;38161;53.020;6.598;2023-04-15T15:40:19;11.10;;;2.78;;
52186;SDS011;38161;53.020;6.598;2023-04-15T15:42:45;11.73;;;3.25;;
52186;SDS011;38161;53.020;6.598;2023-04-15T15:45:13;9.02;;;2.97;;